Ongar, United Kingdom
Current Conditions -  °F | °C
As of 1:50 PM on Wednesday 26 Nov 2014 (Local Time) from EGSS Reporting Station
Haze Haze  
Wind Chill: 46°   Ceiling: 200
Heat Index: 48°   Visibility: 0.62mi
Dew Point: 46°   Wind: 5mph
Humidity: 93%   Direction: 150°SSE
Pressure: 29.83"   Gusts: NA
Location:  51.71°N, 0.24°E
Report Text: EGSS 261350Z 15004KT 120V200 1000 R22/1400 BR OVC002 09/08 Q1010
Loading
Personal Weather Stations






























Interactive Weather Map New forecast layout! Learn more

10-Day Weather Forecast

Advertisements
Track Severe Weather on mobile